Time;durP1;ratioP1;P1;durP2;ratioP2;P2;SDS_P1;SDS_P2;PMS_P1;PMS_P2;Temp;Humidity;BMP_temperature;BMP_pressure;BME280_temperature;BME280_humidity;BME280_pressure;Samples;Min_cycle;Max_cycle;Signal;HPM_P1;HPM_P2
2021/05/09 00:01:12;;;;;;;0.60;0.37;;;;;;;;;;5020410;28;20243;-60
2021/05/09 00:03:38;;;;;;;0.87;0.73;;;;;;;;;;5006051;28;20275;-60
2021/05/09 00:06:05;;;;;;;0.87;0.00;;;;;;;;;;5001161;28;20311;-60
2021/05/09 00:08:31;;;;;;;0.10;0.10;;;;;;;;;;5017333;28;20187;-61
2021/05/09 00:10:58;;;;;;;0.00;0.00;;;;;;;;;;5008106;28;20372;-60
2021/05/09 00:13:25;;;;;;;3.83;0.93;;;;;;;;;;5013272;28;20189;-60
2021/05/09 00:15:52;;;;;;;0.13;0.10;;;;;;;;;;5005907;28;20362;-60
2021/05/09 00:18:19;;;;;;;0.20;0.20;;;;;;;;;;5008452;28;20180;-60
2021/05/09 00:20:45;;;;;;;1.20;0.63;;;;;;;;;;5005882;28;20192;-61
2021/05/09 00:23:12;;;;;;;0.10;0.10;;;;;;;;;;4999103;28;20219;-60
2021/05/09 00:25:39;;;;;;;0.00;0.00;;;;;;;;;;5009881;28;20814;-60
2021/05/09 00:28:06;;;;;;;0.00;0.00;;;;;;;;;;5012398;28;20185;-61
2021/05/09 00:30:33;;;;;;;0.47;0.47;;;;;;;;;;5008886;28;20184;-60
2021/05/09 00:32:59;;;;;;;1.23;0.40;;;;;;;;;;5003058;28;20207;-60
2021/05/09 00:35:27;;;;;;;0.00;0.00;;;;;;;;;;5002114;28;20272;-61
2021/05/09 00:37:54;;;;;;;1.33;0.37;;;;;;;;;;5009136;28;20188;-61
2021/05/09 00:40:20;;;;;;;6.50;0.70;;;;;;;;;;5019403;28;20185;-60
2021/05/09 00:42:47;;;;;;;0.63;0.60;;;;;;;;;;4999062;28;20855;-61
2021/05/09 00:45:14;;;;;;;0.13;0.13;;;;;;;;;;5004282;28;20336;-60
2021/05/09 00:47:40;;;;;;;0.97;0.63;;;;;;;;;;5004631;28;20206;-60
2021/05/09 00:50:07;;;;;;;0.00;0.00;;;;;;;;;;5018861;28;20878;-60
2021/05/09 00:52:37;;;;;;;0.00;0.00;;;;;;;;;;5002140;28;21072;-61
2021/05/09 00:55:05;;;;;;;0.07;0.07;;;;;;;;;;5012467;28;20255;-60
2021/05/09 00:57:36;;;;;;;3.20;0.73;;;;;;;;;;5016029;28;20192;-61
2021/05/09 01:00:07;;;;;;;0.93;0.93;;;;;;;;;;5008149;28;20934;-60
2021/05/09 01:02:33;;;;;;;0.00;0.00;;;;;;;;;;5004061;28;20188;-60
2021/05/09 01:05:01;;;;;;;0.00;0.00;;;;;;;;;;5000769;28;20217;-60
2021/05/09 01:07:28;;;;;;;0.00;0.00;;;;;;;;;;5004970;28;21089;-60
2021/05/09 01:09:54;;;;;;;0.73;0.73;;;;;;;;;;5011858;28;20181;-61
2021/05/09 01:12:21;;;;;;;2.13;0.30;;;;;;;;;;5005195;28;20339;-60
2021/05/09 01:14:50;;;;;;;1.40;0.97;;;;;;;;;;5006045;28;20355;-60
2021/05/09 01:17:17;;;;;;;0.67;0.67;;;;;;;;;;5005835;28;20863;-60
2021/05/09 01:19:43;;;;;;;0.30;0.10;;;;;;;;;;5005453;28;20189;-60
2021/05/09 01:22:11;;;;;;;0.37;0.20;;;;;;;;;;4998384;28;20212;-61
2021/05/09 01:24:38;;;;;;;0.30;0.30;;;;;;;;;;4998203;28;20216;-60
2021/05/09 01:27:06;;;;;;;2.60;0.80;;;;;;;;;;5005338;28;20315;-60
2021/05/09 01:29:33;;;;;;;1.13;0.07;;;;;;;;;;5005973;28;20247;-60
2021/05/09 01:31:59;;;;;;;0.00;0.00;;;;;;;;;;5005607;28;20300;-60
2021/05/09 01:34:34;;;;;;;5.83;0.70;;;;;;;;;;5004964;28;20204;-60
2021/05/09 01:37:00;;;;;;;0.77;0.43;;;;;;;;;;5011365;28;20187;-60
2021/05/09 01:39:27;;;;;;;0.40;0.40;;;;;;;;;;5007496;28;20188;-61
2021/05/09 01:41:53;;;;;;;0.00;0.00;;;;;;;;;;5002102;28;20331;-60
2021/05/09 01:44:20;;;;;;;0.03;0.03;;;;;;;;;;5011219;28;20232;-60
2021/05/09 01:46:46;;;;;;;0.00;0.00;;;;;;;;;;5004819;28;20192;-60
2021/05/09 01:49:13;;;;;;;0.00;0.00;;;;;;;;;;5013061;28;20272;-60
2021/05/09 01:51:40;;;;;;;0.03;0.03;;;;;;;;;;5007198;28;20185;-60
2021/05/09 01:54:07;;;;;;;0.00;0.00;;;;;;;;;;5016359;28;20641;-61
2021/05/09 01:56:34;;;;;;;0.00;0.00;;;;;;;;;;5019824;28;20196;-61
2021/05/09 01:59:01;;;;;;;20.83;1.20;;;;;;;;;;5012819;28;20291;-60
2021/05/09 02:01:30;;;;;;;0.00;0.00;;;;;;;;;;5015071;28;20300;-60
2021/05/09 02:03:56;;;;;;;3.50;3.20;;;;;;;;;;5012437;28;20229;-61
2021/05/09 02:06:23;;;;;;;0.00;0.00;;;;;;;;;;5006617;28;20243;-61
2021/05/09 02:08:51;;;;;;;0.00;0.00;;;;;;;;;;5013503;28;20188;-61
2021/05/09 02:11:19;;;;;;;1.73;1.63;;;;;;;;;;5015693;28;20196;-61
2021/05/09 02:13:46;;;;;;;0.10;0.10;;;;;;;;;;5019353;28;20176;-61
2021/05/09 02:16:12;;;;;;;0.10;0.10;;;;;;;;;;5012805;28;20185;-61
2021/05/09 02:18:39;;;;;;;0.23;0.23;;;;;;;;;;5020702;28;20187;-61
2021/05/09 02:21:06;;;;;;;0.00;0.00;;;;;;;;;;5014916;28;20243;-61
2021/05/09 02:23:34;;;;;;;0.60;0.60;;;;;;;;;;5008597;28;20775;-61
2021/05/09 02:26:00;;;;;;;0.50;0.50;;;;;;;;;;5012478;28;20266;-61
2021/05/09 02:28:28;;;;;;;1.80;1.27;;;;;;;;;;5017319;28;20200;-61
2021/05/09 02:30:54;;;;;;;0.63;0.33;;;;;;;;;;5017265;28;21015;-61
2021/05/09 02:33:21;;;;;;;1.40;0.40;;;;;;;;;;5022099;28;20213;-61
2021/05/09 02:35:48;;;;;;;0.00;0.00;;;;;;;;;;5017820;28;20254;-62
2021/05/09 02:38:14;;;;;;;0.00;0.00;;;;;;;;;;5010891;28;20180;-62
2021/05/09 02:40:41;;;;;;;0.83;0.83;;;;;;;;;;5011774;28;20182;-61
2021/05/09 02:43:08;;;;;;;0.07;0.07;;;;;;;;;;5017453;28;20173;-62
2021/05/09 02:45:34;;;;;;;0.30;0.20;;;;;;;;;;5013075;28;20934;-62
2021/05/09 02:48:01;;;;;;;1.10;1.07;;;;;;;;;;5017333;28;20685;-61
2021/05/09 02:50:29;;;;;;;0.00;0.00;;;;;;;;;;5011491;28;20177;-61
2021/05/09 02:52:56;;;;;;;0.00;0.00;;;;;;;;;;5010825;28;20223;-61
2021/05/09 02:55:22;;;;;;;0.00;0.00;;;;;;;;;;5014956;28;20177;-61
2021/05/09 02:57:49;;;;;;;0.00;0.00;;;;;;;;;;5020992;28;20287;-62
2021/05/09 03:00:16;;;;;;;0.10;0.10;;;;;;;;;;5017034;28;20230;-62
2021/05/09 03:02:43;;;;;;;0.20;0.17;;;;;;;;;;5017359;28;20211;-62
2021/05/09 03:05:10;;;;;;;1.23;1.17;;;;;;;;;;5013065;28;21913;-61
2021/05/09 03:07:38;;;;;;;0.10;0.10;;;;;;;;;;5013041;28;20239;-61
2021/05/09 03:10:08;;;;;;;0.00;0.00;;;;;;;;;;5009900;28;20562;-62
2021/05/09 03:12:35;;;;;;;0.00;0.00;;;;;;;;;;5013238;28;20362;-62
2021/05/09 03:15:01;;;;;;;0.00;0.00;;;;;;;;;;5014512;28;20319;-63
2021/05/09 03:17:28;;;;;;;0.03;0.03;;;;;;;;;;5010763;28;20191;-62
2021/05/09 03:19:54;;;;;;;1.60;0.30;;;;;;;;;;5013552;28;20208;-62
2021/05/09 03:22:21;;;;;;;0.00;0.00;;;;;;;;;;5011298;28;20236;-61
2021/05/09 03:24:47;;;;;;;0.00;0.00;;;;;;;;;;5010734;28;20216;-62
2021/05/09 03:27:14;;;;;;;0.00;0.00;;;;;;;;;;5014740;28;20184;-62
2021/05/09 03:29:40;;;;;;;0.10;0.10;;;;;;;;;;5013790;28;20172;-62
2021/05/09 03:32:07;;;;;;;0.10;0.10;;;;;;;;;;5012679;28;20591;-62
2021/05/09 03:34:34;;;;;;;0.50;0.33;;;;;;;;;;5012890;28;20219;-61
2021/05/09 03:37:00;;;;;;;0.70;0.47;;;;;;;;;;5017236;28;20176;-62
2021/05/09 03:39:27;;;;;;;0.00;0.00;;;;;;;;;;5011934;28;20189;-61
2021/05/09 03:41:54;;;;;;;0.00;0.00;;;;;;;;;;5011350;28;20255;-61
2021/05/09 03:44:20;;;;;;;0.27;0.27;;;;;;;;;;5016591;28;20263;-60
2021/05/09 03:46:47;;;;;;;0.00;0.00;;;;;;;;;;5014683;28;20184;-61
2021/05/09 03:49:13;;;;;;;0.00;0.00;;;;;;;;;;5015309;28;20212;-63
2021/05/09 03:51:40;;;;;;;1.90;0.73;;;;;;;;;;5012965;28;20184;-60
2021/05/09 03:54:06;;;;;;;0.00;0.00;;;;;;;;;;5013109;28;20185;-60
2021/05/09 03:56:33;;;;;;;10.27;1.70;;;;;;;;;;5009034;28;21097;-61
2021/05/09 03:58:59;;;;;;;0.00;0.00;;;;;;;;;;5012878;28;20180;-61
2021/05/09 04:01:26;;;;;;;0.00;0.00;;;;;;;;;;5010285;28;20233;-61
2021/05/09 04:03:52;;;;;;;0.00;0.00;;;;;;;;;;5015875;28;20246;-61
2021/05/09 04:06:19;;;;;;;0.00;0.00;;;;;;;;;;5010695;28;20188;-60
2021/05/09 04:08:45;;;;;;;0.30;0.30;;;;;;;;;;5007431;28;20275;-60
2021/05/09 04:11:13;;;;;;;0.00;0.00;;;;;;;;;;5016432;28;20184;-60
2021/05/09 04:13:46;;;;;;;2.03;0.57;;;;;;;;;;5012080;28;20184;-61
2021/05/09 04:16:12;;;;;;;0.37;0.20;;;;;;;;;;5018063;28;21009;-61
2021/05/09 04:18:39;;;;;;;0.10;0.10;;;;;;;;;;5014152;28;20192;-60
2021/05/09 04:21:06;;;;;;;0.00;0.00;;;;;;;;;;5010892;28;20302;-61
2021/05/09 04:23:33;;;;;;;0.53;0.53;;;;;;;;;;5011784;28;20185;-61
2021/05/09 04:26:00;;;;;;;0.00;0.00;;;;;;;;;;5013226;28;20232;-61
2021/05/09 04:28:26;;;;;;;0.40;0.20;;;;;;;;;;5009394;28;20876;-61
2021/05/09 04:30:53;;;;;;;0.30;0.30;;;;;;;;;;5016957;28;21267;-61
2021/05/09 04:33:25;;;;;;;10.93;1.30;;;;;;;;;;5012661;28;20190;-61
2021/05/09 04:35:52;;;;;;;0.20;0.20;;;;;;;;;;5013488;28;20180;-61
2021/05/09 04:38:19;;;;;;;0.93;0.93;;;;;;;;;;5015205;28;20184;-61
2021/05/09 04:40:46;;;;;;;0.00;0.00;;;;;;;;;;5012147;28;20271;-61
2021/05/09 04:43:15;;;;;;;0.00;0.00;;;;;;;;;;5010987;28;20184;-61
2021/05/09 04:45:41;;;;;;;0.10;0.10;;;;;;;;;;5012158;28;20885;-60
2021/05/09 04:48:08;;;;;;;0.07;0.07;;;;;;;;;;5010420;28;20172;-60
2021/05/09 04:50:35;;;;;;;1.83;0.83;;;;;;;;;;5011388;28;20268;-60
2021/05/09 04:53:01;;;;;;;0.10;0.10;;;;;;;;;;5009889;28;20196;-60
2021/05/09 04:55:28;;;;;;;0.00;0.00;;;;;;;;;;5011486;28;20203;-61
2021/05/09 04:57:54;;;;;;;0.00;0.00;;;;;;;;;;5011304;28;20176;-61
2021/05/09 05:00:21;;;;;;;0.10;0.10;;;;;;;;;;5011555;28;20931;-60
2021/05/09 05:02:48;;;;;;;0.27;0.27;;;;;;;;;;5008784;28;20188;-60
2021/05/09 05:05:15;;;;;;;0.00;0.00;;;;;;;;;;5010910;28;20239;-61
2021/05/09 05:07:42;;;;;;;0.23;0.23;;;;;;;;;;5011490;28;20216;-60
2021/05/09 05:10:09;;;;;;;0.00;0.00;;;;;;;;;;5010452;28;20194;-62
2021/05/09 05:12:36;;;;;;;1.67;0.60;;;;;;;;;;5008712;28;20188;-60
2021/05/09 05:15:03;;;;;;;0.10;0.10;;;;;;;;;;5007353;28;20184;-60
2021/05/09 05:17:30;;;;;;;4.03;1.23;;;;;;;;;;5008400;28;20188;-60
2021/05/09 05:19:56;;;;;;;0.30;0.23;;;;;;;;;;5011052;28;20203;-60
2021/05/09 05:22:23;;;;;;;2.47;0.83;;;;;;;;;;5011161;28;20956;-61
2021/05/09 05:24:49;;;;;;;3.37;0.43;;;;;;;;;;5012179;28;20254;-60
2021/05/09 05:27:16;;;;;;;0.00;0.00;;;;;;;;;;5013976;28;20268;-60
2021/05/09 05:29:42;;;;;;;0.00;0.00;;;;;;;;;;5018321;28;20290;-61
2021/05/09 05:32:08;;;;;;;0.67;0.67;;;;;;;;;;5016434;28;20195;-60
2021/05/09 05:34:35;;;;;;;0.00;0.00;;;;;;;;;;5013241;28;20550;-60
2021/05/09 05:37:02;;;;;;;1.07;1.07;;;;;;;;;;5014336;28;20192;-60
2021/05/09 05:39:28;;;;;;;0.00;0.00;;;;;;;;;;5015359;28;20184;-60
2021/05/09 05:41:56;;;;;;;0.63;0.50;;;;;;;;;;5013776;28;20238;-60
2021/05/09 05:44:23;;;;;;;0.00;0.00;;;;;;;;;;5017572;28;21024;-61
2021/05/09 05:46:49;;;;;;;0.00;0.00;;;;;;;;;;5016620;28;20191;-60
2021/05/09 05:49:16;;;;;;;0.50;0.30;;;;;;;;;;5015077;28;20184;-62
2021/05/09 05:51:42;;;;;;;0.20;0.20;;;;;;;;;;5012417;28;20189;-61
2021/05/09 05:54:09;;;;;;;0.10;0.10;;;;;;;;;;5016146;28;20189;-61
2021/05/09 05:56:36;;;;;;;0.00;0.00;;;;;;;;;;5015565;28;20323;-60
2021/05/09 05:59:02;;;;;;;0.77;0.77;;;;;;;;;;5016671;28;20191;-60
2021/05/09 06:01:29;;;;;;;0.00;0.00;;;;;;;;;;5016855;28;20255;-60
2021/05/09 06:03:55;;;;;;;0.40;0.20;;;;;;;;;;5016006;28;20388;-60
2021/05/09 06:06:22;;;;;;;0.00;0.00;;;;;;;;;;5017567;28;20179;-60
2021/05/09 06:08:52;;;;;;;4.80;1.27;;;;;;;;;;5016964;28;20181;-61
2021/05/09 06:11:18;;;;;;;0.40;0.30;;;;;;;;;;5015090;28;20711;-61
2021/05/09 06:13:45;;;;;;;0.00;0.00;;;;;;;;;;5018406;28;20188;-61
2021/05/09 06:16:11;;;;;;;0.40;0.40;;;;;;;;;;5017648;28;20648;-60
2021/05/09 06:18:38;;;;;;;1.30;0.73;;;;;;;;;;5013271;28;20192;-60
2021/05/09 06:21:06;;;;;;;0.27;0.10;;;;;;;;;;5008124;28;20177;-60
2021/05/09 06:23:32;;;;;;;0.00;0.00;;;;;;;;;;5012304;28;21029;-60
2021/05/09 06:25:59;;;;;;;0.00;0.00;;;;;;;;;;5009193;28;20209;-61
2021/05/09 06:28:29;;;;;;;0.20;0.10;;;;;;;;;;5014590;28;20260;-62
2021/05/09 06:30:56;;;;;;;0.97;0.97;;;;;;;;;;5006465;28;20196;-62
2021/05/09 06:33:22;;;;;;;0.33;0.33;;;;;;;;;;5016487;28;20238;-60
2021/05/09 06:35:49;;;;;;;0.00;0.00;;;;;;;;;;5012207;28;20303;-60
2021/05/09 06:38:16;;;;;;;0.53;0.53;;;;;;;;;;5017249;28;20189;-60
2021/05/09 06:40:43;;;;;;;0.37;0.37;;;;;;;;;;5020151;28;20211;-60
2021/05/09 06:43:09;;;;;;;0.00;0.00;;;;;;;;;;5012208;28;20184;-60
2021/05/09 06:45:36;;;;;;;0.00;0.00;;;;;;;;;;5012332;28;20295;-60
2021/05/09 06:48:05;;;;;;;0.10;0.10;;;;;;;;;;5014362;28;20195;-60
2021/05/09 06:50:33;;;;;;;0.00;0.00;;;;;;;;;;5014108;28;20173;-60
2021/05/09 06:53:02;;;;;;;3.40;0.90;;;;;;;;;;5017918;28;20184;-60
2021/05/09 06:55:29;;;;;;;0.57;0.57;;;;;;;;;;5019384;28;20267;-60
2021/05/09 06:57:56;;;;;;;0.00;0.00;;;;;;;;;;5008930;28;20220;-60
2021/05/09 07:00:23;;;;;;;0.43;0.43;;;;;;;;;;5013319;28;21015;-60
2021/05/09 07:02:50;;;;;;;0.03;0.03;;;;;;;;;;5016298;28;20198;-60
2021/05/09 07:05:16;;;;;;;0.00;0.00;;;;;;;;;;5016430;28;20299;-61
2021/05/09 07:07:46;;;;;;;0.00;0.00;;;;;;;;;;5014762;28;20515;-60
2021/05/09 07:10:13;;;;;;;0.10;0.10;;;;;;;;;;5013643;28;20188;-61
2021/05/09 07:12:39;;;;;;;0.07;0.07;;;;;;;;;;5011559;28;20963;-61
2021/05/09 07:15:06;;;;;;;1.03;0.43;;;;;;;;;;5008664;28;20911;-61
2021/05/09 07:17:33;;;;;;;1.80;0.73;;;;;;;;;;5016539;28;20323;-61
2021/05/09 07:20:00;;;;;;;0.30;0.20;;;;;;;;;;5018403;28;20188;-61
2021/05/09 07:22:31;;;;;;;0.20;0.20;;;;;;;;;;5011908;28;20198;-61
2021/05/09 07:24:58;;;;;;;0.53;0.53;;;;;;;;;;5020297;28;20219;-61
2021/05/09 07:27:24;;;;;;;0.33;0.33;;;;;;;;;;5016480;28;20756;-61
2021/05/09 07:29:51;;;;;;;14.73;0.40;;;;;;;;;;5010091;28;20185;-61
2021/05/09 07:32:17;;;;;;;1.57;0.33;;;;;;;;;;5012765;28;20181;-61
2021/05/09 07:34:44;;;;;;;0.07;0.07;;;;;;;;;;5014166;28;20369;-61
2021/05/09 07:37:10;;;;;;;0.00;0.00;;;;;;;;;;5015776;28;20193;-61
2021/05/09 07:39:37;;;;;;;0.00;0.00;;;;;;;;;;5017039;28;20191;-61
2021/05/09 07:42:03;;;;;;;0.10;0.10;;;;;;;;;;5011817;28;20219;-61
2021/05/09 07:44:30;;;;;;;2.20;0.93;;;;;;;;;;5017935;28;20281;-61
2021/05/09 07:46:57;;;;;;;0.00;0.00;;;;;;;;;;5012057;28;20293;-61
2021/05/09 07:49:23;;;;;;;0.00;0.00;;;;;;;;;;5010336;28;20281;-61
2021/05/09 07:51:50;;;;;;;0.00;0.00;;;;;;;;;;5016220;28;20187;-61
2021/05/09 07:54:16;;;;;;;0.63;0.63;;;;;;;;;;5011712;28;20238;-61
2021/05/09 07:56:43;;;;;;;1.27;0.63;;;;;;;;;;5015417;28;20234;-61
2021/05/09 07:59:09;;;;;;;0.77;0.40;;;;;;;;;;5014110;28;20603;-61
2021/05/09 08:01:36;;;;;;;0.00;0.00;;;;;;;;;;5014131;28;20206;-61
2021/05/09 08:04:05;;;;;;;44.40;4.33;;;;;;;;;;5009826;28;20259;-61
2021/05/09 08:06:34;;;;;;;0.63;0.40;;;;;;;;;;5011199;28;20692;-61
2021/05/09 08:09:03;;;;;;;0.00;0.00;;;;;;;;;;5017944;28;20183;-61
2021/05/09 08:11:29;;;;;;;0.00;0.00;;;;;;;;;;5015602;28;20270;-61
2021/05/09 08:13:58;;;;;;;0.00;0.00;;;;;;;;;;5005489;28;20723;-61
2021/05/09 08:16:26;;;;;;;0.40;0.40;;;;;;;;;;5013191;28;20180;-61
2021/05/09 08:18:53;;;;;;;0.47;0.30;;;;;;;;;;5017984;28;20261;-61
2021/05/09 08:21:19;;;;;;;0.00;0.00;;;;;;;;;;5011330;28;20191;-60
2021/05/09 08:23:46;;;;;;;2.67;0.13;;;;;;;;;;5011305;28;20183;-61
2021/05/09 08:26:12;;;;;;;0.10;0.10;;;;;;;;;;5015957;28;20879;-61
2021/05/09 08:28:42;;;;;;;1.80;1.70;;;;;;;;;;5013276;28;20809;-60
2021/05/09 08:31:13;;;;;;;0.53;0.53;;;;;;;;;;5013541;28;20182;-60
2021/05/09 08:33:41;;;;;;;0.00;0.00;;;;;;;;;;5011413;28;20175;-62
2021/05/09 08:36:08;;;;;;;0.20;0.20;;;;;;;;;;5012726;28;20285;-62
2021/05/09 08:38:35;;;;;;;0.00;0.00;;;;;;;;;;5011557;28;22213;-61
2021/05/09 08:41:02;;;;;;;0.00;0.00;;;;;;;;;;5008981;28;20543;-62
2021/05/09 08:43:28;;;;;;;0.00;0.00;;;;;;;;;;5011202;28;20239;-61
2021/05/09 08:45:57;;;;;;;0.47;0.47;;;;;;;;;;5013981;28;20935;-61
2021/05/09 08:48:26;;;;;;;2.40;1.30;;;;;;;;;;5012370;28;20289;-61
2021/05/09 08:50:52;;;;;;;0.30;0.30;;;;;;;;;;5011244;28;20644;-61
2021/05/09 08:53:22;;;;;;;0.00;0.00;;;;;;;;;;5011608;28;20739;-61
2021/05/09 08:55:49;;;;;;;0.77;0.77;;;;;;;;;;5008682;28;20199;-61
2021/05/09 08:58:15;;;;;;;0.10;0.10;;;;;;;;;;5012305;28;20197;-61
2021/05/09 09:00:44;;;;;;;1.23;0.83;;;;;;;;;;5013808;28;20617;-61
2021/05/09 09:03:13;;;;;;;0.10;0.10;;;;;;;;;;5014677;28;20191;-61
2021/05/09 09:05:46;;;;;;;0.00;0.00;;;;;;;;;;5013874;28;20222;-61
2021/05/09 09:08:17;;;;;;;0.00;0.00;;;;;;;;;;5019420;28;20290;-61
2021/05/09 09:10:43;;;;;;;0.00;0.00;;;;;;;;;;5016904;28;20217;-61
2021/05/09 09:13:39;;;;;;;0.03;0.03;;;;;;;;;;5012986;28;20554;-61
2021/05/09 09:16:06;;;;;;;0.00;0.00;;;;;;;;;;5004234;28;20680;-62
2021/05/09 09:18:43;;;;;;;0.20;0.20;;;;;;;;;;5016788;28;20261;-62
2021/05/09 09:21:28;;;;;;;2.87;1.07;;;;;;;;;;5019347;28;20207;-61
2021/05/09 09:24:13;;;;;;;0.00;0.00;;;;;;;;;;5016369;28;20232;-61
2021/05/09 09:26:41;;;;;;;0.00;0.00;;;;;;;;;;5014105;28;20196;-62
2021/05/09 09:29:20;;;;;;;1.13;1.07;;;;;;;;;;5016226;28;20379;-61
2021/05/09 09:31:47;;;;;;;0.00;0.00;;;;;;;;;;5013422;28;20213;-61
2021/05/09 09:34:14;;;;;;;0.00;0.00;;;;;;;;;;5016273;28;20200;-62
2021/05/09 09:36:41;;;;;;;1.17;0.97;;;;;;;;;;5014177;28;20995;-61
2021/05/09 09:39:09;;;;;;;0.10;0.10;;;;;;;;;;5016048;28;20661;-61
2021/05/09 09:41:43;;;;;;;0.00;0.00;;;;;;;;;;5015326;28;21076;-61
2021/05/09 09:44:15;;;;;;;0.00;0.00;;;;;;;;;;5015587;28;20234;-61
2021/05/09 09:46:48;;;;;;;0.10;0.10;;;;;;;;;;5022210;28;20187;-63
2021/05/09 09:49:19;;;;;;;1.10;0.60;;;;;;;;;;5012823;28;20180;-63
2021/05/09 09:52:05;;;;;;;4.03;0.50;;;;;;;;;;5013977;28;20494;-61
2021/05/09 09:54:48;;;;;;;1.20;0.77;;;;;;;;;;5008750;28;20518;-61
2021/05/09 09:57:24;;;;;;;0.50;0.50;;;;;;;;;;5014264;28;20521;-63
2021/05/09 10:00:06;;;;;;;1.13;0.57;;;;;;;;;;5015135;28;20179;-61
2021/05/09 10:02:33;;;;;;;0.00;0.00;;;;;;;;;;5015539;28;20183;-59
2021/05/09 10:05:00;;;;;;;0.10;0.10;;;;;;;;;;5015826;28;20211;-62
2021/05/09 10:07:28;;;;;;;0.00;0.00;;;;;;;;;;5014721;28;20183;-61
2021/05/09 10:10:00;;;;;;;0.00;0.00;;;;;;;;;;5013618;28;20187;-59
2021/05/09 10:12:27;;;;;;;7.20;0.30;;;;;;;;;;5013637;28;20183;-60
2021/05/09 10:14:58;;;;;;;1.13;0.93;;;;;;;;;;5009770;28;20188;-60
2021/05/09 10:17:27;;;;;;;0.00;0.00;;;;;;;;;;5016053;28;20183;-60
2021/05/09 10:19:54;;;;;;;0.00;0.00;;;;;;;;;;5013361;28;20921;-60
2021/05/09 10:22:27;;;;;;;0.00;0.00;;;;;;;;;;5013105;28;20696;-60
2021/05/09 10:24:53;;;;;;;0.00;0.00;;;;;;;;;;5019556;28;21010;-60
2021/05/09 10:27:20;;;;;;;0.00;0.00;;;;;;;;;;5016508;28;20183;-60
2021/05/09 12:51:26;;;;;;;0.70;0.70;;;;;;;;;;5110195;27;21331;-64
2021/05/09 12:53:53;;;;;;;0.93;0.57;;;;;;;;;;5108242;28;20658;-64
2021/05/09 12:56:32;;;;;;;0.70;0.50;;;;;;;;;;5106182;27;20181;-63
2021/05/09 12:59:12;;;;;;;0.00;0.00;;;;;;;;;;5110895;27;20550;-63
2021/05/09 13:01:40;;;;;;;1.70;0.50;;;;;;;;;;5111536;27;20202;-62
2021/05/09 13:04:25;;;;;;;0.13;0.10;;;;;;;;;;5111731;27;20496;-63
2021/05/09 13:06:51;;;;;;;0.00;0.00;;;;;;;;;;5110925;27;20188;-64
2021/05/09 13:09:18;;;;;;;0.30;0.30;;;;;;;;;;5106834;28;20212;-64
2021/05/09 13:11:45;;;;;;;0.10;0.10;;;;;;;;;;5110875;27;20189;-66
2021/05/09 13:14:11;;;;;;;0.00;0.00;;;;;;;;;;5109666;27;20173;-66
2021/05/09 13:16:38;;;;;;;0.00;0.00;;;;;;;;;;5109602;28;20451;-67
2021/05/09 13:19:04;;;;;;;0.70;0.57;;;;;;;;;;5112776;27;20200;-66
2021/05/09 13:21:31;;;;;;;0.20;0.20;;;;;;;;;;5110654;28;20178;-67
2021/05/09 13:23:57;;;;;;;0.50;0.13;;;;;;;;;;5106825;28;20208;-66
2021/05/09 13:26:24;;;;;;;2.50;0.40;;;;;;;;;;5107467;28;20208;-66
2021/05/09 13:28:50;;;;;;;0.00;0.00;;;;;;;;;;5104294;28;20203;-66
2021/05/09 13:31:17;;;;;;;0.20;0.20;;;;;;;;;;5109077;28;20332;-66
2021/05/09 13:33:43;;;;;;;2.93;0.50;;;;;;;;;;5113996;28;20209;-66
2021/05/09 13:36:10;;;;;;;0.70;0.20;;;;;;;;;;5115535;28;20670;-66
2021/05/09 13:38:37;;;;;;;4.80;1.27;;;;;;;;;;5108602;28;20318;-66
2021/05/09 13:41:03;;;;;;;0.37;0.33;;;;;;;;;;5115785;28;20292;-66
2021/05/09 13:43:30;;;;;;;0.47;0.20;;;;;;;;;;5108087;28;20921;-66
2021/05/09 13:45:57;;;;;;;0.83;0.43;;;;;;;;;;5114951;28;20330;-66
2021/05/09 13:48:26;;;;;;;2.43;0.20;;;;;;;;;;5114976;28;20197;-66
2021/05/09 13:50:53;;;;;;;0.47;0.37;;;;;;;;;;5113991;28;20239;-66
2021/05/09 13:53:21;;;;;;;0.00;0.00;;;;;;;;;;5115412;28;20186;-66
2021/05/09 13:55:47;;;;;;;0.00;0.00;;;;;;;;;;5111328;28;20189;-66
2021/05/09 13:58:14;;;;;;;0.10;0.10;;;;;;;;;;5091959;28;20178;-66
2021/05/09 14:00:42;;;;;;;4.40;0.40;;;;;;;;;;5106717;28;20859;-67
2021/05/09 14:03:08;;;;;;;3.23;1.70;;;;;;;;;;5098751;28;20635;-66
2021/05/09 14:05:34;;;;;;;0.97;0.20;;;;;;;;;;5101915;28;20867;-67
2021/05/09 14:08:01;;;;;;;0.30;0.30;;;;;;;;;;5102014;28;20186;-66
2021/05/09 14:10:28;;;;;;;0.67;0.37;;;;;;;;;;5101405;28;20754;-66
2021/05/09 14:12:54;;;;;;;14.20;1.83;;;;;;;;;;5100562;28;20333;-67
2021/05/09 14:15:21;;;;;;;0.00;0.00;;;;;;;;;;5093430;28;20182;-66
2021/05/09 14:17:48;;;;;;;0.37;0.20;;;;;;;;;;5098110;28;20196;-67
2021/05/09 14:20:15;;;;;;;0.00;0.00;;;;;;;;;;5101877;28;20276;-66
2021/05/09 14:22:42;;;;;;;0.40;0.40;;;;;;;;;;5101219;28;20185;-67
2021/05/09 14:25:08;;;;;;;0.00;0.00;;;;;;;;;;5094927;28;20189;-66
2021/05/09 14:27:35;;;;;;;0.53;0.40;;;;;;;;;;5100848;28;20197;-66
2021/05/09 14:30:01;;;;;;;0.30;0.20;;;;;;;;;;5101027;28;20252;-66
2021/05/09 14:32:28;;;;;;;1.57;0.97;;;;;;;;;;5100966;28;20238;-66
2021/05/09 14:34:55;;;;;;;1.07;0.67;;;;;;;;;;5100353;28;20189;-67
2021/05/09 14:37:21;;;;;;;0.10;0.10;;;;;;;;;;5094324;28;20714;-66
2021/05/09 14:39:48;;;;;;;0.10;0.10;;;;;;;;;;5100851;28;20216;-66
2021/05/09 14:42:14;;;;;;;0.13;0.13;;;;;;;;;;5099913;28;20363;-66
2021/05/09 14:44:41;;;;;;;0.10;0.10;;;;;;;;;;5101116;28;20991;-66
2021/05/09 14:47:07;;;;;;;0.53;0.20;;;;;;;;;;5100800;28;20193;-67
2021/05/09 14:49:34;;;;;;;1.50;0.83;;;;;;;;;;5100646;28;20244;-67
2021/05/09 14:52:00;;;;;;;0.00;0.00;;;;;;;;;;5100661;28;20232;-66
2021/05/09 14:54:27;;;;;;;0.37;0.37;;;;;;;;;;5099395;28;20251;-67
2021/05/09 14:56:53;;;;;;;2.73;0.53;;;;;;;;;;5094990;28;20188;-67
2021/05/09 14:59:24;;;;;;;12.63;1.03;;;;;;;;;;5101184;28;20180;-67
2021/05/09 15:01:51;;;;;;;0.00;0.00;;;;;;;;;;5100722;28;20189;-67
2021/05/09 15:04:18;;;;;;;1.33;0.20;;;;;;;;;;5099321;28;20242;-67
2021/05/09 15:06:44;;;;;;;0.10;0.10;;;;;;;;;;5096621;28;20186;-66
2021/05/09 15:09:11;;;;;;;0.87;0.17;;;;;;;;;;5100682;28;20385;-67
2021/05/09 15:11:37;;;;;;;0.10;0.10;;;;;;;;;;5094365;28;20197;-67
2021/05/09 15:14:04;;;;;;;0.50;0.50;;;;;;;;;;5099454;28;20190;-67
2021/05/09 15:16:31;;;;;;;2.97;0.60;;;;;;;;;;5100855;28;20642;-67
2021/05/09 15:18:57;;;;;;;0.67;0.40;;;;;;;;;;5100568;28;20196;-67
2021/05/09 15:21:24;;;;;;;0.90;0.10;;;;;;;;;;5100490;28;20277;-67
2021/05/09 15:23:50;;;;;;;1.50;0.87;;;;;;;;;;5099746;28;20196;-67
2021/05/09 15:26:19;;;;;;;2.47;2.27;;;;;;;;;;5092973;28;20229;-67
2021/05/09 15:28:50;;;;;;;0.00;0.00;;;;;;;;;;5100558;28;20907;-67
2021/05/09 15:31:18;;;;;;;0.00;0.00;;;;;;;;;;5099828;28;20228;-67
2021/05/09 15:33:45;;;;;;;0.43;0.10;;;;;;;;;;5092963;28;20188;-67
2021/05/09 15:36:11;;;;;;;0.03;0.03;;;;;;;;;;5100243;28;20250;-67
2021/05/09 15:38:38;;;;;;;0.40;0.40;;;;;;;;;;5099947;28;20186;-68
2021/05/09 15:41:05;;;;;;;0.00;0.00;;;;;;;;;;5095987;28;20272;-67
2021/05/09 15:43:32;;;;;;;0.63;0.63;;;;;;;;;;5099786;28;20185;-67
2021/05/09 15:45:59;;;;;;;4.00;0.70;;;;;;;;;;5099501;28;20551;-67
2021/05/09 15:48:25;;;;;;;0.00;0.00;;;;;;;;;;5099761;28;20190;-67
2021/05/09 15:50:52;;;;;;;0.73;0.50;;;;;;;;;;5099775;28;20226;-69
2021/05/09 15:53:18;;;;;;;0.10;0.10;;;;;;;;;;5099479;28;20627;-68
2021/05/09 15:55:45;;;;;;;0.20;0.20;;;;;;;;;;5080410;28;20185;-67
2021/05/09 15:58:12;;;;;;;0.10;0.10;;;;;;;;;;5098954;28;21107;-67
2021/05/09 16:00:38;;;;;;;0.10;0.10;;;;;;;;;;5098969;28;20604;-66
2021/05/09 16:03:05;;;;;;;0.53;0.53;;;;;;;;;;5098896;28;20191;-66
2021/05/09 16:05:32;;;;;;;0.10;0.10;;;;;;;;;;5099369;28;20840;-66
2021/05/09 16:07:58;;;;;;;0.00;0.00;;;;;;;;;;5098045;28;20296;-68
2021/05/09 16:10:25;;;;;;;0.00;0.00;;;;;;;;;;5097058;28;20294;-66
2021/05/09 16:12:54;;;;;;;0.40;0.13;;;;;;;;;;5098909;28;20197;-66
2021/05/09 16:15:26;;;;;;;1.33;0.60;;;;;;;;;;5080124;28;20623;-66
2021/05/09 16:17:52;;;;;;;0.80;0.80;;;;;;;;;;5092495;28;20656;-67
2021/05/09 16:20:19;;;;;;;0.17;0.17;;;;;;;;;;5092507;28;20302;-67
2021/05/09 16:22:46;;;;;;;0.37;0.17;;;;;;;;;;5098842;28;20204;-67
2021/05/09 16:25:13;;;;;;;0.90;0.53;;;;;;;;;;5098323;28;20261;-67
2021/05/09 16:27:39;;;;;;;5.93;0.77;;;;;;;;;;5098701;28;20212;-66
2021/05/09 16:30:06;;;;;;;1.60;1.23;;;;;;;;;;5099004;28;20213;-67
2021/05/09 16:32:33;;;;;;;0.50;0.40;;;;;;;;;;5098898;28;20290;-67
2021/05/09 16:34:59;;;;;;;3.00;0.70;;;;;;;;;;5098465;28;20249;-67
2021/05/09 16:37:26;;;;;;;0.50;0.47;;;;;;;;;;5097878;28;20696;-67
2021/05/09 16:39:52;;;;;;;0.33;0.33;;;;;;;;;;5097989;28;20606;-67
2021/05/09 16:42:19;;;;;;;0.07;0.07;;;;;;;;;;5097616;28;20201;-67
2021/05/09 16:44:45;;;;;;;1.10;0.97;;;;;;;;;;5098378;28;20185;-67
2021/05/09 16:47:12;;;;;;;3.60;0.37;;;;;;;;;;5092883;28;20197;-66
2021/05/09 16:49:38;;;;;;;1.03;0.30;;;;;;;;;;5092243;28;20274;-66
2021/05/09 16:52:06;;;;;;;0.10;0.10;;;;;;;;;;5091673;28;20943;-67
2021/05/09 16:54:35;;;;;;;5.23;3.20;;;;;;;;;;5092049;28;20272;-67
2021/05/09 16:57:03;;;;;;;0.00;0.00;;;;;;;;;;5092225;28;20185;-67
2021/05/09 16:59:31;;;;;;;1.70;0.17;;;;;;;;;;5098499;28;20714;-66
2021/05/09 17:01:57;;;;;;;0.40;0.40;;;;;;;;;;5098618;28;20197;-66
2021/05/09 17:04:24;;;;;;;8.53;5.30;;;;;;;;;;5092166;28;20192;-66
2021/05/09 17:06:50;;;;;;;1.13;0.90;;;;;;;;;;5098145;28;20286;-66